East Dennis, Massachusetts
Current Conditions -  °F | °C
As of 3:56 AM on Saturday 20 Dec 2014 (Local Time) from KHYA Reporting Station
Overcast Overcast  
Wind Chill: 28°   Ceiling: 2300
Heat Index: 33°   Visibility: 10mi
Dew Point: 28°   Wind: 6mph
Humidity: 82%   Direction: 290°WNW
Pressure: 30.14"   Gusts: NA
Location:  41.74°N, 70.16°W
Report Text: KHYA 200856Z AUTO 29005KT 10SM SCT014 OVC023 01/M02 A3014 RMK AO2 SLP207 T00061022 51006
Loading
Personal Weather Stations






























Interactive Weather Map New forecast layout! Learn more

10-Day Weather Forecast

Advertisements
Track Severe Weather on mobile